createdAt,value
2022-08-11T00:01:55.805Z,5.03
2022-08-11T00:06:50.736Z,5.15
2022-08-11T00:09:21.052Z,6.68
2022-08-11T00:11:53.460Z,5.00
2022-08-11T00:14:37.557Z,3.33
2022-08-11T00:17:13.148Z,3.60
2022-08-11T00:20:13.344Z,6.43
2022-08-11T00:22:29.694Z,3.97
2022-08-11T00:25:01.589Z,4.15
2022-08-11T00:27:34.083Z,4.10
2022-08-11T00:30:00.700Z,2.95
2022-08-11T00:32:27.922Z,4.00
2022-08-11T00:35:56.295Z,2.83
2022-08-11T00:37:47.766Z,3.25
2022-08-11T00:40:24.006Z,3.05
2022-08-11T00:43:01.844Z,3.20
2022-08-11T00:46:09.370Z,3.05
2022-08-11T00:49:00.425Z,4.43
2022-08-11T00:52:02.174Z,3.35
2022-08-11T00:54:50.629Z,4.50
2022-08-11T00:57:38.931Z,3.63
2022-08-11T01:00:13.541Z,3.20
2022-08-11T01:02:54.798Z,4.20
2022-08-11T01:05:59.334Z,4.70
2022-08-11T01:08:55.267Z,3.43
2022-08-11T01:11:39.369Z,3.00
2022-08-11T01:14:56.037Z,3.70
2022-08-11T01:17:54.623Z,5.97
2022-08-11T01:20:51.797Z,3.92
2022-08-11T01:23:58.242Z,3.10
2022-08-11T01:26:49.476Z,7.20
2022-08-11T01:29:40.398Z,3.63
2022-08-11T01:32:53.052Z,5.10
2022-08-11T01:35:47.591Z,3.72
2022-08-11T01:38:51.723Z,4.80
2022-08-11T01:41:47.028Z,4.40
2022-08-11T01:44:49.527Z,3.10
2022-08-11T01:47:54.087Z,8.52
2022-08-11T01:50:30.781Z,3.00
2022-08-11T01:53:09.278Z,3.25
2022-08-11T01:56:12.869Z,3.33
2022-08-11T01:59:05.706Z,3.28
2022-08-11T02:02:01.107Z,3.05
2022-08-11T02:04:44.671Z,3.28
2022-08-11T02:07:41.554Z,5.20
2022-08-11T02:10:50.385Z,3.17
2022-08-11T02:13:46.134Z,3.75
2022-08-11T02:16:22.689Z,4.65
2022-08-11T02:19:11.678Z,4.70
2022-08-11T02:22:04.304Z,4.15
2022-08-11T02:24:36.207Z,2.95
2022-08-11T02:27:07.368Z,5.05
2022-08-11T02:30:04.934Z,2.97
2022-08-11T02:33:10.096Z,2.75
2022-08-11T02:35:58.846Z,3.58
2022-08-11T02:38:33.801Z,3.58
2022-08-11T02:41:01.940Z,4.78
2022-08-11T02:44:00.003Z,3.67
2022-08-11T02:46:30.989Z,4.00
2022-08-11T02:49:24.422Z,2.70
2022-08-11T02:52:07.376Z,2.67
2022-08-11T02:54:51.651Z,3.63
2022-08-11T02:57:36.681Z,5.32
2022-08-11T03:00:09.737Z,4.43
2022-08-11T03:03:05.650Z,2.90
2022-08-11T03:05:45.893Z,3.90
2022-08-11T03:08:30.409Z,3.10
2022-08-11T03:11:50.363Z,3.65
2022-08-11T03:14:53.937Z,4.65
2022-08-11T03:17:30.910Z,5.70
2022-08-11T03:20:22.074Z,2.90
2022-08-11T03:23:01.672Z,3.30
2022-08-11T03:25:32.601Z,2.65
2022-08-11T03:28:04.591Z,3.55
2022-08-11T03:30:33.923Z,3.28
2022-08-11T03:33:36.158Z,2.80
2022-08-11T03:36:08.410Z,4.10
2022-08-11T03:38:51.367Z,4.22
2022-08-11T03:41:54.687Z,3.30
2022-08-11T03:45:03.213Z,2.70
2022-08-11T03:47:32.242Z,3.88
2022-08-11T03:50:27.277Z,4.20
2022-08-11T03:55:40.421Z,3.63
2022-08-11T03:58:26.640Z,2.92
2022-08-11T04:01:02.037Z,3.17
2022-08-11T04:03:46.787Z,3.40
2022-08-11T04:09:28.890Z,3.60
2022-08-11T04:12:36.645Z,7.75
2022-08-11T04:15:51.979Z,5.97
2022-08-11T04:18:52.391Z,3.47
2022-08-11T04:21:27.430Z,3.00
2022-08-11T04:24:34.488Z,2.75
2022-08-11T04:27:14.276Z,4.25
2022-08-11T04:30:03.592Z,2.83
2022-08-11T04:32:44.399Z,4.55
2022-08-11T04:35:19.372Z,3.47
2022-08-11T04:38:16.366Z,14.90
2022-08-11T04:40:56.675Z,15.60
2022-08-11T04:44:11.143Z,13.10
2022-08-11T04:46:48.100Z,7.03
2022-08-11T04:49:42.335Z,6.72
2022-08-11T04:53:04.490Z,5.80
2022-08-11T04:56:04.310Z,4.72
2022-08-11T04:59:14.715Z,4.32
2022-08-11T05:02:18.393Z,4.50
2022-08-11T05:05:18.023Z,6.35
2022-08-11T05:08:24.025Z,4.85
2022-08-11T05:11:12.170Z,4.65
2022-08-11T05:13:59.790Z,4.13
2022-08-11T05:16:52.350Z,6.35
2022-08-11T05:19:39.271Z,5.32
2022-08-11T05:22:29.336Z,3.78
2022-08-11T05:26:44.690Z,4.40
2022-08-11T05:28:33.438Z,3.72
2022-08-11T05:31:30.949Z,2.80
2022-08-11T05:34:19.006Z,2.92
2022-08-11T05:36:50.965Z,6.38
2022-08-11T05:39:40.266Z,8.40
2022-08-11T05:42:29.819Z,8.70
2022-08-11T05:45:23.327Z,6.65
2022-08-11T05:48:09.650Z,3.88
2022-08-11T05:50:55.318Z,4.60
2022-08-11T05:53:45.784Z,4.63
2022-08-11T05:56:19.393Z,2.60
2022-08-11T05:58:53.183Z,8.02
2022-08-11T06:01:27.568Z,3.58
2022-08-11T06:04:15.067Z,8.20
2022-08-11T06:06:54.820Z,10.15
2022-08-11T06:09:47.678Z,13.82
2022-08-11T06:12:23.950Z,3.63
2022-08-11T06:14:54.688Z,4.72
2022-08-11T06:17:25.678Z,5.28
2022-08-11T06:20:07.162Z,5.93
2022-08-11T06:22:34.356Z,3.08
2022-08-11T06:25:01.750Z,5.32
2022-08-11T06:27:30.657Z,4.18
2022-08-11T06:29:57.918Z,2.55
2022-08-11T06:32:26.529Z,4.22
2022-08-11T06:35:07.331Z,3.15
2022-08-11T06:38:04.861Z,4.88
2022-08-11T06:40:34.744Z,5.88
2022-08-11T06:43:10.310Z,6.90
2022-08-11T06:45:57.461Z,4.22
2022-08-11T06:48:25.054Z,4.00
2022-08-11T06:51:12.741Z,5.55
2022-08-11T06:54:03.140Z,3.30
2022-08-11T06:57:06.684Z,3.13
2022-08-11T06:59:59.114Z,3.40
2022-08-11T07:02:34.561Z,4.65
2022-08-11T07:05:04.361Z,6.13
2022-08-11T07:08:34.366Z,4.93
2022-08-11T07:11:31.672Z,3.47
2022-08-11T07:14:20.249Z,4.07
2022-08-11T07:16:48.744Z,3.53
2022-08-11T07:19:36.238Z,3.50
2022-08-11T07:22:23.215Z,3.97
2022-08-11T07:25:14.471Z,4.53
2022-08-11T07:28:06.716Z,4.25
2022-08-11T07:30:36.519Z,5.32
2022-08-11T07:33:03.659Z,7.70
2022-08-11T07:35:36.364Z,5.60
2022-08-11T07:38:07.174Z,4.80
2022-08-11T07:40:35.250Z,4.25
2022-08-11T07:43:01.900Z,3.15
2022-08-11T07:45:47.129Z,6.65
2022-08-11T07:48:34.118Z,4.20
2022-08-11T07:51:19.806Z,5.30
2022-08-11T07:54:15.316Z,3.42
2022-08-11T07:56:47.987Z,2.53
2022-08-11T08:00:00.117Z,6.68
2022-08-11T08:02:45.952Z,3.67
2022-08-11T08:05:31.040Z,8.15
2022-08-11T08:08:15.841Z,6.63
2022-08-11T08:11:02.450Z,4.35
2022-08-11T08:13:47.438Z,5.63
2022-08-11T08:16:35.379Z,4.32
2022-08-11T08:19:01.870Z,2.80
2022-08-11T08:21:28.287Z,3.78
2022-08-11T08:23:56.685Z,4.78
2022-08-11T08:26:41.406Z,7.53
2022-08-11T08:29:26.836Z,5.63
2022-08-11T08:31:54.055Z,3.75
2022-08-11T08:34:20.942Z,3.83
2022-08-11T08:36:50.315Z,4.38
2022-08-11T08:39:21.538Z,5.47
2022-08-11T08:41:55.073Z,4.93
2022-08-11T08:44:40.793Z,3.50
2022-08-11T08:47:10.863Z,8.15
2022-08-11T08:49:40.376Z,5.00
2022-08-11T08:52:33.265Z,6.85
2022-08-11T08:54:57.282Z,4.63
2022-08-11T08:57:24.132Z,4.93
2022-08-11T08:59:51.729Z,2.83
2022-08-11T09:02:34.122Z,4.05
2022-08-11T09:05:03.872Z,3.72
2022-08-11T09:07:38.752Z,5.07
2022-08-11T09:10:07.841Z,5.30
2022-08-11T09:12:35.730Z,3.42
2022-08-11T09:15:06.195Z,8.57
2022-08-11T09:17:38.869Z,2.92
2022-08-11T09:20:11.343Z,6.63
2022-08-11T09:26:07.898Z,5.13
2022-08-11T09:28:35.510Z,5.43
2022-08-11T09:31:02.561Z,3.17
2022-08-11T09:33:30.323Z,2.47
2022-08-11T09:35:57.372Z,3.95
2022-08-11T09:38:49.310Z,4.40
2022-08-11T09:41:16.227Z,4.65
2022-08-11T09:44:04.334Z,2.90
2022-08-11T09:46:32.751Z,5.38
2022-08-11T09:49:00.829Z,3.22
2022-08-11T09:51:32.034Z,4.57
2022-08-11T09:54:03.549Z,3.53
2022-08-11T09:56:49.878Z,3.13
2022-08-11T09:59:18.307Z,4.85
2022-08-11T10:01:49.102Z,4.07
2022-08-11T10:04:18.391Z,4.03
2022-08-11T10:07:10.578Z,4.18
2022-08-11T10:09:40.817Z,5.45
2022-08-11T10:12:11.574Z,2.65
2022-08-11T10:15:01.106Z,3.50
2022-08-11T10:17:29.019Z,2.65
2022-08-11T10:20:04.325Z,4.88
2022-08-11T10:22:51.194Z,2.58
2022-08-11T10:25:36.503Z,3.60
2022-08-11T10:28:32.715Z,3.92
2022-08-11T10:31:13.947Z,2.72
2022-08-11T10:34:00.062Z,5.43
2022-08-11T10:36:35.541Z,3.97
2022-08-11T10:39:03.655Z,4.63
2022-08-11T10:42:04.614Z,4.80
2022-08-11T10:47:25.423Z,3.20
2022-08-11T10:50:11.182Z,2.45
2022-08-11T10:52:56.822Z,3.85
2022-08-11T10:55:42.630Z,5.53
2022-08-11T10:58:29.200Z,6.68
2022-08-11T11:00:58.895Z,3.22
2022-08-11T11:03:27.782Z,5.18
2022-08-11T11:06:27.760Z,5.28
2022-08-11T11:08:52.934Z,4.35
2022-08-11T11:11:21.333Z,3.70
2022-08-11T11:14:08.745Z,4.75
2022-08-11T11:16:50.862Z,3.95
2022-08-11T11:19:20.714Z,3.00
2022-08-11T11:21:50.825Z,5.68
2022-08-11T11:24:42.695Z,4.57
2022-08-11T11:27:18.664Z,3.47
2022-08-11T11:30:01.240Z,2.55
2022-08-11T11:32:35.862Z,2.50
2022-08-11T11:35:08.860Z,2.65
2022-08-11T11:37:36.871Z,7.25
2022-08-11T11:40:10.473Z,8.93
2022-08-11T11:42:39.473Z,2.58
2022-08-11T11:45:07.202Z,3.90
2022-08-11T11:47:33.983Z,3.25
2022-08-11T11:50:00.541Z,2.35
2022-08-11T11:52:27.571Z,3.72
2022-08-11T11:54:56.411Z,4.05
2022-08-11T11:57:41.800Z,5.90
2022-08-11T12:00:43.752Z,2.88
2022-08-11T12:03:11.154Z,2.95
2022-08-11T12:05:39.678Z,2.90
2022-08-11T12:08:22.385Z,2.67
2022-08-11T12:11:12.283Z,4.22
2022-08-11T12:13:43.595Z,2.00
2022-08-11T12:16:34.294Z,3.20
2022-08-11T12:19:01.345Z,6.07
2022-08-11T12:21:29.042Z,2.22
2022-08-11T12:24:19.538Z,3.35
2022-08-11T12:27:01.465Z,2.80
2022-08-11T12:29:36.161Z,2.35
2022-08-11T12:32:07.462Z,2.58
2022-08-11T12:34:34.000Z,3.90
2022-08-11T12:37:05.506Z,7.15
2022-08-11T12:40:16.835Z,5.65
2022-08-11T12:43:04.073Z,4.75
2022-08-11T12:45:35.251Z,2.42
2022-08-11T12:48:59.431Z,2.53
2022-08-11T12:51:30.466Z,5.07
2022-08-11T12:54:23.450Z,4.57
2022-08-11T12:57:13.797Z,2.53
2022-08-11T12:59:59.305Z,2.63
2022-08-11T13:02:44.697Z,2.40
2022-08-11T13:05:14.949Z,8.73
2022-08-11T13:07:49.858Z,2.03
2022-08-11T13:10:39.494Z,7.03
2022-08-11T13:13:52.129Z,9.82
2022-08-11T13:15:54.449Z,5.90
2022-08-11T13:18:23.212Z,2.45
2022-08-11T13:20:53.328Z,2.00
2022-08-11T13:23:20.295Z,3.65
2022-08-11T13:25:47.143Z,4.15
2022-08-11T13:28:13.840Z,4.50
2022-08-11T13:30:59.222Z,4.03
2022-08-11T13:33:25.959Z,4.53
2022-08-11T13:35:54.141Z,3.17
2022-08-11T13:38:22.165Z,3.38
2022-08-11T13:40:56.918Z,3.10
2022-08-11T13:43:24.094Z,3.85
2022-08-11T13:45:52.766Z,3.08
2022-08-11T13:48:19.241Z,3.05
2022-08-11T13:51:05.110Z,5.22
2022-08-11T13:53:32.059Z,3.38
2022-08-11T13:56:00.005Z,3.25
2022-08-11T13:58:39.742Z,2.80
2022-08-11T14:02:03.100Z,4.47
2022-08-11T14:04:31.117Z,3.42
2022-08-11T14:06:47.805Z,3.63
2022-08-11T14:09:16.058Z,3.95
2022-08-11T14:12:21.818Z,3.10
2022-08-11T14:14:54.250Z,8.25
2022-08-11T14:17:35.917Z,4.25
2022-08-11T14:20:38.616Z,5.03
2022-08-11T14:22:56.616Z,2.80
2022-08-11T14:25:23.188Z,2.53
2022-08-11T14:28:33.614Z,4.60
2022-08-11T14:31:00.480Z,2.88
2022-08-11T14:33:28.691Z,2.80
2022-08-11T14:36:15.273Z,3.05
2022-08-11T14:38:42.140Z,2.63
2022-08-11T14:41:27.331Z,6.32
2022-08-11T14:44:14.820Z,4.50
2022-08-11T14:47:01.300Z,3.58
2022-08-11T14:49:28.650Z,3.00
2022-08-11T14:51:57.020Z,2.17
2022-08-11T14:54:44.230Z,5.35
2022-08-11T14:57:11.360Z,2.65
2022-08-11T14:59:38.284Z,2.28
2022-08-11T15:02:24.393Z,2.60
2022-08-11T15:04:51.516Z,3.63
2022-08-11T15:07:18.806Z,3.80
2022-08-11T15:10:11.606Z,3.83
2022-08-11T15:12:33.652Z,4.40
2022-08-11T15:15:19.635Z,4.28
2022-08-11T15:17:49.299Z,6.75
2022-08-11T15:20:36.901Z,5.10
2022-08-11T15:23:22.675Z,3.17
2022-08-11T15:26:09.393Z,3.03
2022-08-11T15:28:57.703Z,6.70
2022-08-11T15:31:49.396Z,7.43
2022-08-11T15:34:36.567Z,3.88
2022-08-11T15:37:29.838Z,2.25
2022-08-11T15:40:31.242Z,2.25
2022-08-11T15:43:27.064Z,3.05
2022-08-11T15:46:02.115Z,2.60
2022-08-11T15:48:56.293Z,3.00
2022-08-11T15:51:30.866Z,2.65
2022-08-11T15:53:58.830Z,4.10
2022-08-11T15:56:27.702Z,2.60
2022-08-11T15:59:41.184Z,4.47
2022-08-11T16:02:20.566Z,3.00
2022-08-11T16:04:47.612Z,3.22
2022-08-11T16:07:27.263Z,2.53
2022-08-11T16:10:00.543Z,2.33
2022-08-11T16:12:32.451Z,2.25
2022-08-11T16:15:24.092Z,8.52
2022-08-11T16:17:56.401Z,2.97
2022-08-11T16:20:24.763Z,3.83
2022-08-11T16:22:55.256Z,5.63
2022-08-11T16:27:02.158Z,2.60
2022-08-11T16:28:15.180Z,3.65
2022-08-11T16:30:43.937Z,5.07
2022-08-11T16:33:22.772Z,2.55
2022-08-11T16:36:16.366Z,4.10
2022-08-11T16:38:42.995Z,3.75
2022-08-11T16:41:12.709Z,3.33
2022-08-11T16:44:04.121Z,4.30
2022-08-11T16:46:49.554Z,3.25
2022-08-11T16:49:18.388Z,2.97
2022-08-11T16:51:45.254Z,2.78
2022-08-11T16:54:12.076Z,2.40
2022-08-11T16:56:42.300Z,6.45
2022-08-11T16:59:16.542Z,2.70
2022-08-11T17:02:03.222Z,2.75
2022-08-11T17:04:52.729Z,2.75
2022-08-11T17:07:43.202Z,3.50
2022-08-11T17:11:01.551Z,3.58
2022-08-11T17:13:36.476Z,2.80
2022-08-11T17:16:07.425Z,2.83
2022-08-11T17:18:42.524Z,5.68
2022-08-11T17:21:15.338Z,3.97
2022-08-11T17:23:50.170Z,4.65
2022-08-11T17:26:23.145Z,5.28
2022-08-11T17:28:53.114Z,4.72
2022-08-11T17:31:39.424Z,2.63
2022-08-11T17:34:27.964Z,4.55
2022-08-11T17:36:55.433Z,3.00
2022-08-11T17:39:25.399Z,2.70
2022-08-11T17:42:10.772Z,2.90
2022-08-11T17:44:57.273Z,8.23
2022-08-11T17:47:42.958Z,4.97
2022-08-11T17:50:17.592Z,6.03
2022-08-11T17:53:04.466Z,8.18
2022-08-11T17:55:53.401Z,3.88
2022-08-11T17:58:39.642Z,4.85
2022-08-11T18:01:09.522Z,4.18
2022-08-11T18:03:39.405Z,4.05
2022-08-11T18:06:12.468Z,2.50
2022-08-11T18:09:02.245Z,5.15
2022-08-11T18:12:10.313Z,4.68
2022-08-11T18:14:55.894Z,3.20
2022-08-11T18:17:41.016Z,3.85
2022-08-11T18:20:26.815Z,9.05
2022-08-11T18:23:14.414Z,211.23
2022-08-11T18:26:02.807Z,86.55
2022-08-11T18:28:59.051Z,113.45
2022-08-11T18:31:44.799Z,798.15
2022-08-11T18:34:33.102Z,772.17
2022-08-11T18:37:29.095Z,467.60
2022-08-11T18:40:21.156Z,560.75
2022-08-11T18:43:06.667Z,223.15
2022-08-11T18:46:05.313Z,65.47
2022-08-11T18:48:53.917Z,8.98
2022-08-11T18:51:41.636Z,5.07
2022-08-11T18:54:28.873Z,3.95
2022-08-11T18:57:16.484Z,8.38
2022-08-11T19:00:03.377Z,2.92
2022-08-11T19:02:50.050Z,3.72
2022-08-11T19:06:06.051Z,3.28
2022-08-11T19:08:47.389Z,3.00
2022-08-11T19:11:33.025Z,4.65
2022-08-11T19:14:20.655Z,4.47
2022-08-11T19:17:07.210Z,3.95
2022-08-11T19:19:54.092Z,5.65
2022-08-11T19:22:40.232Z,5.40
2022-08-11T19:25:26.875Z,3.83
2022-08-11T19:28:12.859Z,8.98
2022-08-11T19:30:58.742Z,9.13
2022-08-11T19:34:02.627Z,3.42
2022-08-11T19:36:50.156Z,3.40
2022-08-11T19:39:36.216Z,4.93
2022-08-11T19:42:22.395Z,5.40
2022-08-11T19:45:07.831Z,5.75
2022-08-11T19:48:03.369Z,6.88
2022-08-11T19:50:58.569Z,3.88
2022-08-11T19:53:45.235Z,4.03
2022-08-11T19:56:30.897Z,4.78
2022-08-11T19:59:17.202Z,4.10
2022-08-11T20:02:13.514Z,5.05
2022-08-11T20:04:59.420Z,4.90
2022-08-11T20:07:44.566Z,4.95
2022-08-11T20:10:30.307Z,2.67
2022-08-11T20:13:21.631Z,5.35
2022-08-11T20:16:07.181Z,4.90
2022-08-11T20:18:52.777Z,5.03
2022-08-11T20:21:38.054Z,5.88
2022-08-11T20:24:23.361Z,3.88
2022-08-11T20:27:18.901Z,2.88
2022-08-11T20:30:10.119Z,4.00
2022-08-11T20:32:55.942Z,2.47
2022-08-11T20:35:41.604Z,4.13
2022-08-11T20:38:26.923Z,4.03
2022-08-11T20:41:13.564Z,2.55
2022-08-11T20:44:07.614Z,2.47
2022-08-11T20:46:57.111Z,2.30
2022-08-11T20:49:48.831Z,3.08
2022-08-11T20:52:40.219Z,3.65
2022-08-11T20:55:46.420Z,3.05
2022-08-11T20:59:01.122Z,6.47
2022-08-11T21:01:38.623Z,6.75
2022-08-11T21:04:24.069Z,5.43
2022-08-11T21:07:10.242Z,3.17
2022-08-11T21:10:10.270Z,6.28
2022-08-11T21:13:26.094Z,2.58
2022-08-11T21:16:08.825Z,5.65
2022-08-11T21:19:11.224Z,3.30
2022-08-11T21:21:57.019Z,4.97
2022-08-11T21:24:47.182Z,4.13
2022-08-11T21:27:34.095Z,6.15
2022-08-11T21:30:19.342Z,5.68
2022-08-11T21:33:04.395Z,4.55
2022-08-11T21:35:50.319Z,7.20
2022-08-11T21:38:36.468Z,4.38
2022-08-11T21:41:22.350Z,2.55
2022-08-11T21:44:09.010Z,3.53
2022-08-11T21:46:54.705Z,3.83
2022-08-11T21:49:40.184Z,5.32
2022-08-11T21:52:25.039Z,4.78
2022-08-11T21:55:10.523Z,7.20
2022-08-11T21:57:55.713Z,3.10
2022-08-11T22:00:40.496Z,5.88
2022-08-11T22:03:25.606Z,2.42
2022-08-11T22:06:12.223Z,6.15
2022-08-11T22:08:57.361Z,4.00
2022-08-11T22:11:42.139Z,3.97
2022-08-11T22:14:27.034Z,6.25
2022-08-11T22:17:12.122Z,5.13
2022-08-11T22:20:00.774Z,4.65
2022-08-11T22:22:52.538Z,3.05
2022-08-11T22:25:39.352Z,6.75
2022-08-11T22:28:36.581Z,8.25
2022-08-11T22:31:21.971Z,5.13
2022-08-11T22:34:06.700Z,5.60
2022-08-11T22:36:52.160Z,2.70
2022-08-11T22:39:37.648Z,4.85
2022-08-11T22:42:33.064Z,4.90
2022-08-11T22:45:18.978Z,4.18
2022-08-11T22:48:06.122Z,3.78
2022-08-11T22:50:51.425Z,4.05
2022-08-11T22:53:58.483Z,3.13
2022-08-11T22:56:41.897Z,6.43
2022-08-11T22:59:27.132Z,5.50
2022-08-11T23:02:12.302Z,5.00
2022-08-11T23:04:57.038Z,4.25
2022-08-11T23:07:50.914Z,2.92
2022-08-11T23:10:37.597Z,7.70
2022-08-11T23:13:22.673Z,3.20
2022-08-11T23:16:08.016Z,6.45
2022-08-11T23:18:52.981Z,2.95
2022-08-11T23:21:38.916Z,4.78
2022-08-11T23:24:24.610Z,4.90
2022-08-11T23:27:09.632Z,2.45
2022-08-11T23:29:56.176Z,5.55
2022-08-11T23:32:44.748Z,5.38
2022-08-11T23:35:38.701Z,10.07
2022-08-11T23:38:25.773Z,4.57
2022-08-11T23:41:11.563Z,5.50
2022-08-11T23:43:56.731Z,4.57
2022-08-11T23:46:43.984Z,3.63
2022-08-11T23:49:29.049Z,3.25
2022-08-11T23:52:15.445Z,2.35
2022-08-11T23:55:00.899Z,5.18
2022-08-11T23:57:49.290Z,2.45
